Acheng, China
Current Conditions -  °F | °C
As of 11:00 PM on Tuesday 21 Oct 2014 (Local Time) from ZYHB Reporting Station
Clear Clear  
Wind Chill:   Ceiling: Unl
Heat Index: 16°   Visibility: 5mi
Dew Point: 10°   Wind: 4mph
Humidity: 79%   Direction: 190°S
Pressure: 30.27"   Gusts: NA
Location:  45.54°N, 126.96°E
Report Text: ZYHB 211500Z 19002MPS 8000 NSC M09/M12 Q1025 NOSIG
Loading
Personal Weather Stations






























Interactive Weather Map
Tropical Storm Tracking
New forecast layout! Learn more

10-Day Weather Forecast

Advertisements
Track Severe Weather on mobile